Station: Noonamah

  Atmospheric Gas Attenuation - ITU Rec 676-11   --------------- db/100km ---------------
Date Time Temp RH % AH g/m3 Dew Point Wind Direction Speed kph Gust kph Barometer mB Rainfall Since 9am 24GHz 47GHz 76GHz 122GHz 134GHz 241GHz
11 23:00 26.7 92 23.29 25.3 0 0 1010.4 0 49.9 47.5 96.2 254.7 287.4 998.4
11 22:50 26.7 91 23.03 25.1 0 0 1013.1 0 49.3 47.1 95.1 251.7 283.5 985.1
11 22:40 26.7 91 23.03 25.1 0 0 1013.1 0 49.3 47.1 95.1 251.7 283.5 985.1
11 22:30 26.5 90 22.53 24.7 0 0 1010.5 0 48.3 46.1 92.6 245.2 275.6 957.4
11 22:20 26.7 90 22.78 24.9 0 0 1013.1 0 48.8 46.6 93.8 248.3 279.4 970.8
11 22:10 26.6 89 22.4 24.6 0 0 1013.1 0 48.0 45.9 92.0 243.5 273.5 950.3
11 22:00 26.6 89 22.4 24.6 0 0 1010.4 0 48.0 45.7 91.8 243.1 273.0 948.7
11 21:50 26.7 89 22.53 24.7 0 0 1013.1 0 48.3 46.1 92.5 245.0 275.3 956.5
11 21:40 26.8 87 22.14 24.4 0 2 1013.1 0 47.4 45.2 90.4 239.4 268.5 933.1
11 21:30 26.7 87 22.02 24.4 4 6 1009.9 0 47.2 44.9 89.7 237.6 266.4 925.6
11 21:20 26.8 88 22.4 24.6 0 0 1013.1 0 48.0 45.8 91.7 242.9 272.8 947.8
11 21:10 26.9 88 22.52 24.7 0 0 1013.1 0 48.2 45.9 92.2 244.2 274.4 953.3
11 21:00 27.2 86 22.38 24.7 0 0 1009.7 0 47.9 45.3 90.9 240.7 270.4 939.5
11 20:50 27.2 87 22.64 24.8 0 0 1013.1 0 48.4 46.0 92.4 244.8 275.2 956.3
11 20:40 27.2 86 22.38 24.6 0 0 1013.1 0 47.9 45.5 91.1 241.3 271.0 941.6
11 20:30 27.3 85 22.24 24.6 0 2 1009.1 0 47.6 45.0 90.1 238.5 267.6 930.0
11 20:20 27.4 85 22.37 24.6 2 4 1013.1 0 47.8 45.4 90.9 240.6 270.1 938.5
11 20:10 27.6 84 22.35 24.6 0 0 1013.1 0 47.8 45.2 90.5 239.6 269.0 934.9
11 20:00 27.7 85 22.74 24.9 0 0 1009.1 0 48.6 45.7 92.0 243.8 274.3 953.1
11 19:50 27.9 83 22.45 24.7 0 0 1013.1 0 47.9 45.2 90.6 240.0 269.5 936.7
11 19:40 28 82 22.3 24.6 0 0 1013.1 0 47.6 44.9 89.8 237.7 266.8 927.1
11 19:30 28.3 83 22.95 25.1 0 4 1008.8 0 49.0 45.8 92.3 244.5 275.4 957.0
11 19:20 28.7 80 22.61 24.9 0 0 1013.1 0 48.2 45.1 90.5 239.5 269.2 935.7
11 19:10 28.6 79 22.2 24.6 0 0 1013.1 0 47.3 44.4 88.6 234.5 263.0 914.2
11 19:00 29 77 22.12 24.6 2 6 1008.4 0 47.2 43.8 87.4 231.5 259.6 902.2
11 18:50 29.3 76 22.19 24.6 0 0 1013.1 0 47.2 44.0 87.7 232.2 260.4 905.2
11 18:40 29.6 75 22.26 24.7 6 6 1013.1 0 47.3 43.9 87.7 232.2 260.5 905.4
11 18:30 29.9 72 21.72 24.3 4 6 1008.1 0 46.2 42.5 84.5 223.6 250.2 869.9
11 18:20 30.1 70 21.35 24 4 4 1013.1 0 45.4 42.0 82.8 219.3 244.7 850.9
11 18:10 30.5 68 21.19 23.9 6 7 1013.1 0 45.0 41.5 81.7 216.2 241.0 838.0
11 18:00 30.9 67 21.33 24.1 11 19 1007.8 0 45.3 41.3 81.5 215.9 241.0 838.0
11 17:50 31.5 69 22.69 25.1 11 13 1013.1 0 48.0 43.8 87.5 231.8 260.5 905.8
11 17:40 31.9 65 21.83 24.7 7 9 1013.1 0 46.1 42.0 83.1 220.0 246.1 855.9
11 17:30 32.3 61 20.93 23.8 7 13 1007.4 0 44.3 39.9 78.2 207.1 230.7 802.2
11 17:20 33.1 57 20.41 23.7 9 11 1013.1 0 43.1 38.8 75.5 199.8 221.7 771.0
11 17:10 33.6 56 20.58 23.6 7 11 1013.1 0 43.4 38.9 75.7 200.5 222.6 774.4
11 17:00 33.3 58 20.98 23.9 7 15 1007.2 0 44.3 39.5 77.4 205.0 228.3 794.2
11 16:50 34.1 55 20.75 24 9 13 1013.1 0 43.6 39.0 76.0 201.2 223.6 777.8
11 16:40 34.1 56 21.13 24.3 9 15 1013.1 0 44.4 39.6 77.6 205.6 229.0 796.6
11 16:30 34.3 58 22.12 25.1 11 19 1007.2 0 46.5 41.0 81.4 215.7 241.7 840.8
11 16:20 33.7 58 21.43 24.5 6 9 1013.1 0 45.1 40.3 79.4 210.2 234.5 815.8
11 16:10 34.3 55 20.97 24.2 4 6 1013.1 0 44.1 39.3 76.7 203.2 226.1 786.6
11 15:59 34.9 51 20.07 23.5 4 4 1013.1 0 42.2 37.4 72.3 191.4 211.8 737.0
11 15:50 36.5 38 16.25 20.3 2 2 1013.1 0 34.2 30.7 55.8 147.6 158.4 551.0
11 15:40 36.4 36 15.31 19.3 2 4 1013.1 0 32.2 29.3 52.4 138.5 147.2 512.0
11 15:30 36 39 16.25 19.9 6 11 1006.9 0 34.2 30.6 55.9 147.7 158.7 552.0
11 15:20 36.3 37 15.66 19.7 2 6 1013.1 0 33.0 29.9 53.8 142.1 151.6 527.3
11 15:10 35.9 37 15.33 19.3 2 4 1013.1 0 32.3 29.5 52.8 139.6 148.4 516.0
11 15:00 36 37 15.41 19.4 2 6 1007 0 32.5 29.4 52.8 139.5 148.5 516.4
11 14:50 35.8 38 15.67 19.6 2 4 1013.1 0 33.0 30.0 54.2 143.1 152.7 531.0
11 14:40 35.4 38 15.35 19.3 7 11 1013.1 0 32.4 29.7 53.2 140.6 149.6 520.1
11 14:30 35.3 37 14.87 18.8 2 7 1007.4 0 31.4 28.8 51.3 135.4 143.4 498.4
11 14:20 34.7 47 18.3 22 0 0 1013.1 0 38.5 34.6 65.2 172.4 188.5 655.6
11 14:10 34.1 49 18.49 22.1 2 4 1013.1 0 39.0 35.1 66.5 175.8 192.5 669.5
11 14:00 34.3 50 19.07 22.7 0 6 1007.8 0 40.2 35.8 68.4 181.0 199.0 692.4
11 13:50 34.2 50 18.97 22.6 0 0 1013.1 0 40.0 35.9 68.3 180.9 198.7 691.1
11 13:40 34.5 51 19.65 23.2 6 6 1013.1 0 41.3 36.9 70.9 187.7 207.1 720.6
11 13:30 34.6 49 18.98 22.6 4 6 1008.4 0 40.0 35.5 67.8 179.4 197.1 685.8
11 13:20 34 54 20.27 23.6 4 4 1013.1 0 42.7 38.2 74.0 195.9 217.1 755.3
11 13:10 34.4 52 19.93 23.4 7 9 1013.1 0 41.9 37.4 72.2 191.1 211.3 735.0
11 13:00 34.4 51 19.55 22.8 6 9 1008.9 0 41.2 36.6 70.3 186.2 205.4 714.7
11 12:50 34.6 47 18.21 21.9 7 9 1013.1 0 38.3 34.5 64.9 171.7 187.5 652.3
11 12:40 34.9 45 17.71 21.5 4 4 1013.1 0 37.3 33.5 62.7 165.7 180.3 627.0
11 12:30 33.8 53 19.69 22.9 6 9 1009.4 0 41.5 37.1 71.5 189.3 209.1 727.2
11 12:20 34 50 18.77 22.1 0 2 1013.1 0 39.6 35.6 67.7 179.1 196.5 683.5
11 12:10 34.4 49 18.78 22.4 0 0 1013.1 0 39.5 35.5 67.4 178.3 195.6 680.4
11 12:00 33.4 54 19.64 23.1 0 6 1010 0 41.4 37.2 71.7 189.8 209.5 728.9
11 11:50 33.3 54 19.54 23 2 4 1013.1 0 41.2 37.2 71.5 189.4 208.9 726.5
11 11:40 33.5 54 19.74 23.2 6 7 1013.1 0 41.6 37.5 72.2 191.1 211.1 734.3
11 11:30 33.4 58 21.1 24 4 7 1010.5 0 44.5 39.8 78.1 206.7 230.2 800.9
11 11:20 33.5 58 21.21 24.1 0 0 1013.1 0 44.7 40.1 78.6 208.1 231.9 806.8
11 11:10 33.2 59 21.23 24.3 0 4 1013.1 0 44.7 40.2 79.0 209.2 233.1 811.0
11 11:00 33 61 21.72 24.5 2 6 1010.7 0 45.8 41.1 81.2 215.1 240.5 836.7
11 10:50 32.8 60 21.14 24.2 0 2 1013.1 0 44.6 40.3 79.0 209.2 233.1 810.7
11 10:40 32.5 57 19.77 23.1 0 0 1013.1 0 41.8 38.0 73.3 194.0 214.3 745.3
11 10:30 32.5 59 20.46 23.7 2 6 1011 0 43.2 39.1 76.2 201.6 223.8 778.4
11 10:20 31.8 62 20.72 23.8 0 0 1013.1 0 43.8 40.0 78.2 206.9 230.0 799.9
11 10:10 31.8 62 20.72 23.8 2 4 1013.1 0 43.8 40.0 78.2 206.9 230.0 799.9
11 10:00 31.6 64 21.16 24 2 6 1011.1 0 44.8 40.8 80.2 212.4 236.8 823.4
11 09:50 31.1 66 21.24 24.2 0 2 1013.1 0 45.0 41.3 81.2 215.1 239.9 834.1
11 09:40 30.6 66 20.68 23.5 6 6 1013.1 0 43.9 40.5 79.2 209.7 233.1 810.4
11 09:30 30.2 72 22.08 24.6 2 6 1011 0 46.9 43.2 86.0 227.7 255.2 887.4
11 09:20 29.9 76 22.93 25.2 6 7 1013.1 0 48.7 45.1 90.6 239.9 269.9 938.4
11 09:10 29.4 78 22.9 25.3 0 0 1013.1 0 48.7 45.3 91.0 241.1 271.3 943.0
11 09:00 28.9 80 22.86 25.1 0 0 1010.8 0 48.7 45.4 91.3 241.8 272.1 945.6
11 08:50 28.6 82 23.05 25.2 0 0 1013.1 0.2 49.1 46.0 92.8 245.6 276.6 961.5
11 08:40 28 84 22.85 25 0 0 1013.1 0.2 48.8 46.0 92.5 244.9 275.6 957.9
11 08:30 27.3 86 22.5 24.7 0 0 1010.7 0.2 48.2 45.6 91.5 242.2 272.1 945.6
11 08:20 27 89 22.91 25 0 0 1013.1 0.2 49.0 46.7 94.1 249.1 280.4 974.3
11 08:10 26.3 90 22.28 24.5 0 0 1013.1 0.2 47.8 45.8 91.8 242.9 272.7 947.3
11 08:00 25.9 93 22.52 24.7 0 0 1010.4 0.2 48.4 46.4 93.3 247.0 277.6 964.6
11 07:50 25.4 94 22.13 24.3 0 0 1013.1 0.2 47.6 46.0 92.1 243.8 273.5 950.2
11 07:40 24.9 96 21.97 24.2 0 0 1013.1 0.2 47.3 45.9 91.9 243.3 272.7 947.4
11 07:30 24.6 97 21.83 24.1 0 0 1010.2 0.2 47.1 45.7 91.4 241.9 271.0 941.3
11 07:20 24.3 97 21.46 23.8 0 0 1013.1 0.2 46.3 45.2 90.0 238.4 266.5 925.5
11 07:10 24.1 97 21.22 23.6 0 0 1013.1 0.2 45.8 44.9 89.1 235.7 263.2 914.2
11 07:00 24.1 97 21.22 23.6 0 0 1010 0.2 45.8 44.7 88.9 235.2 262.7 912.3
11 06:50 24.1 97 21.22 23.6 0 0 1013.1 0.2 45.8 44.9 89.1 235.7 263.2 914.2
11 06:40 24.1 96 21 23.4 0 0 1013.1 0.2 45.3 44.4 88.0 232.8 259.6 901.6
11 06:30 24.1 96 21 23.4 0 0 1009.6 0.2 45.4 44.3 87.7 232.2 259.0 899.5

Last Refresh: 11-Apr-2021 23:17:19

Bureau of Meteorology